Hlavní strana
METAR-TAF:

METAR-TAF

Letiště :

Chartúm, Súdán

zeměpisná šířka: 15-36N, zeměpisná délka: 032-33E, výška: 382 m

Aktuální stav počasí

Zpráva byla vytvořena před 24 minutami, v 02:30 UTC
Jihojihozápadní vítr 8 kt
Teplota 27°C
Vlhkost vzduchu 62%
Tlak 1010 hPa
Viditelnost 10 km a více
Žádná oblačnost pod 1500 m, nevyskytují se cumulonimby.

METAR: HSSS 180230Z 20008KT CAVOK 27/19 Q1010 NOSIG

Čas: 05:54 (02:54 UTC)

Předpověď počasí

Zpráva byla vytvořena před 3 hodinami a 54 minutami, v 23:00 UTC
Předpověď platná od 18 v 00 UTC do 18 v 09 UTC
Jihojihozápadní vítr 16 kt s nárazy do 30 kt
Viditelnost: 8000 m
Polojasno ve výšce 14000 ft
Dočasný
od 18 v 09 UTC do 18 v 14 UTC
Viditelnost: 8000 m
Skoro jasno ve výšce 4000 ft
Polojasno ve výšce 14000 ft

TAF: HSSS 172300Z 1800/1809 20016G30KT 8000 SCT140 BROP30 TEMPO 1809/1814 8000 FEW040 SCT140

Stav a předpovědi počasí z více než 4 000 letišť (zprávy METAR a TAF).

Červené a žluté tečky na mapě představují dostupné meteorologické stanice.

Když kurzor umístíte na tečku, zobrazí se název stanice.

Pak kliknutím zobrazíte stav a předpověď počasí.

Chcete-li změnit mapu, kliknutím na zelené tlačítko se znaménkem +mapu přiblížíte, kliknutím na zelené tlačítko se znaménkem – mapu oddálíte a kliknutím na zelené šipky přejdete na sousední mapy.


METAR-TAF: